Terminal Aerodrome Forecast
Issued by NWS Hastings, NE

Home | Current Version | Previous Version | Text Only | Print | Product List | Glossary On
Versions: 1 2 3 4 5 6 7 8 9 10 11 12 13 14 15 16 17 18 19 20
000
FTUS45 KGID 252339
TAFEAR
TAF
KEAR 252339Z 2600/2624 VRB04KT P6SM SCT080
     FM260600 22008KT P6SM SCT100
     FM261200 28011KT P6SM FEW250 WS010/33042KT
     FM261700 31014G21KT P6SM FEW250
      AMD LTD TO CLD VIS AND WIND=

USA.gov is the U.S. government's official web portal to all federal, state and local government web resources and services.